Time;durP1;ratioP1;P1;durP2;ratioP2;P2;SDS_P1;SDS_P2;PMS_P1;PMS_P2;Temp;Humidity;BMP_temperature;BMP_pressure;BME280_temperature;BME280_humidity;BME280_pressure;Samples;Min_cycle;Max_cycle;Signal;HPM_P1;HPM_P2
2021/10/29 00:00:39;;;;;;;17.60;9.00;;;;;;;5.81;63.77;95624.56;5113000;28;20024;-73
2021/10/29 00:03:05;;;;;;;17.73;8.80;;;;;;;5.89;63.58;95637.09;5112813;28;20084;-74
2021/10/29 00:05:30;;;;;;;15.55;9.13;;;;;;;5.87;63.68;95631.16;5094745;28;20023;-73
2021/10/29 00:07:56;;;;;;;14.73;9.10;;;;;;;5.82;63.76;95621.94;5094593;28;20031;-73
2021/10/29 00:10:21;;;;;;;13.75;8.88;;;;;;;5.96;63.54;95631.56;5111362;28;20056;-73
2021/10/29 00:12:47;;;;;;;14.43;9.15;;;;;;;6.03;63.55;95622.59;5094446;28;20543;-73
2021/10/29 00:15:13;;;;;;;16.05;8.25;;;;;;;6.03;63.75;95619.19;5111557;28;20035;-73
2021/10/29 00:17:38;;;;;;;16.73;9.35;;;;;;;6.08;63.56;95616.38;5113051;28;20088;-74
2021/10/29 00:20:05;;;;;;;15.10;9.02;;;;;;;6.06;63.71;95606.13;5111342;28;20027;-73
2021/10/29 00:22:30;;;;;;;17.60;9.30;;;;;;;6.11;63.73;95611.88;5111442;28;20421;-73
2021/10/29 00:24:57;;;;;;;15.23;9.48;;;;;;;6.16;63.67;95614.22;5111265;28;20024;-73
2021/10/29 00:27:22;;;;;;;18.80;9.18;;;;;;;6.10;63.85;95614.53;5077704;28;20485;-73
2021/10/29 00:29:48;;;;;;;15.10;9.45;;;;;;;6.07;63.88;95619.84;5094372;28;20031;-73
2021/10/29 00:32:14;;;;;;;16.23;8.93;;;;;;;6.02;63.96;95625.25;5094168;28;20038;-72
2021/10/29 00:34:39;;;;;;;14.50;9.02;;;;;;;6.03;64.06;95629.50;5093952;28;20055;-73
2021/10/29 00:37:05;;;;;;;15.02;9.32;;;;;;;6.03;63.76;95637.22;5093993;28;20035;-73
2021/10/29 00:39:30;;;;;;;17.35;9.98;;;;;;;5.93;63.90;95620.53;5112184;28;20093;-73
2021/10/29 00:41:56;;;;;;;16.10;8.77;;;;;;;5.96;63.93;95630.72;5076994;28;20028;-73
2021/10/29 00:44:25;;;;;;;14.65;9.02;;;;;;;5.91;63.76;95624.94;5076998;28;20020;-73
2021/10/29 00:46:51;;;;;;;15.52;8.27;;;;;;;5.94;63.80;95627.41;5093850;28;20024;-73
2021/10/29 00:49:16;;;;;;;14.45;9.38;;;;;;;5.91;63.74;95610.31;5110762;28;20552;-73
2021/10/29 00:51:43;;;;;;;13.43;8.73;;;;;;;5.90;63.85;95613.78;5093807;28;20028;-72
2021/10/29 00:54:08;;;;;;;15.27;9.35;;;;;;;5.91;63.99;95617.22;5077020;28;20035;-72
2021/10/29 00:56:34;;;;;;;13.25;8.93;;;;;;;5.88;64.03;95610.47;5110784;28;20034;-72
2021/10/29 00:59:03;;;;;;;15.85;9.80;;;;;;;5.85;63.95;95608.06;5110584;28;20043;-73
2021/10/29 01:01:28;;;;;;;16.05;9.32;;;;;;;5.71;64.10;95593.28;5110820;28;20035;-73
2021/10/29 01:03:53;;;;;;;15.68;8.88;;;;;;;5.73;64.10;95599.19;5110573;28;20024;-73
2021/10/29 01:06:19;;;;;;;19.80;9.00;;;;;;;5.70;64.35;95601.09;5093601;28;20036;-73
2021/10/29 01:08:44;;;;;;;17.63;9.95;;;;;;;5.67;64.44;95596.91;5076759;28;20028;-73
2021/10/29 01:11:14;;;;;;;15.48;8.77;;;;;;;5.63;64.43;95599.72;5111666;28;20039;-73
2021/10/29 01:13:44;;;;;;;18.55;10.77;;;;;;;5.63;64.17;95605.72;5110402;28;20505;-73
2021/10/29 01:16:09;;;;;;;17.67;10.40;;;;;;;5.58;64.18;95597.41;5110365;28;20031;-72
2021/10/29 01:18:35;;;;;;;16.75;10.05;;;;;;;5.44;64.25;95584.38;5076510;28;20421;-73
2021/10/29 01:21:00;;;;;;;19.10;10.77;;;;;;;5.47;64.30;95591.94;5110284;28;20516;-73
2021/10/29 01:23:25;;;;;;;16.10;10.70;;;;;;;5.39;64.50;95594.91;5076756;28;20035;-73
2021/10/29 01:26:00;;;;;;;17.60;10.45;;;;;;;5.30;64.64;95597.94;5111363;28;20466;-73
2021/10/29 01:28:25;;;;;;;18.52;10.00;;;;;;;5.24;65.21;95595.69;5093583;28;20520;-73
2021/10/29 01:30:51;;;;;;;20.05;11.43;;;;;;;5.12;65.18;95589.38;5111268;28;20024;-72
2021/10/29 01:33:16;;;;;;;19.67;10.80;;;;;;;5.10;65.67;95586.88;5093266;28;20040;-73
2021/10/29 01:35:41;;;;;;;18.65;11.13;;;;;;;5.06;65.80;95597.41;5111461;28;20062;-73
2021/10/29 01:38:07;;;;;;;20.52;12.07;;;;;;;4.92;66.43;95588.59;5109981;28;20035;-73
2021/10/29 01:40:32;;;;;;;18.88;11.45;;;;;;;4.85;66.40;95582.09;5110053;28;20050;-73
2021/10/29 01:42:58;;;;;;;18.10;11.65;;;;;;;4.82;66.46;95592.53;5092568;28;20036;-73
2021/10/29 01:45:23;;;;;;;17.75;11.25;;;;;;;4.82;66.74;95596.81;5092905;28;20088;-73
2021/10/29 01:47:49;;;;;;;18.63;11.27;;;;;;;4.74;66.82;95583.53;5076062;28;20024;-73
2021/10/29 01:50:14;;;;;;;20.30;11.20;;;;;;;4.75;66.81;95583.44;5109998;28;20034;-73
2021/10/29 01:52:39;;;;;;;23.20;11.18;;;;;;;4.86;66.71;95594.03;5110102;28;20032;-73
2021/10/29 01:55:05;;;;;;;21.45;12.00;;;;;;;4.80;66.97;95589.19;5109936;28;20066;-73
2021/10/29 01:57:31;;;;;;;20.30;12.13;;;;;;;4.73;67.48;95598.09;5092920;28;20057;-73
2021/10/29 01:59:56;;;;;;;23.98;12.43;;;;;;;4.73;67.35;95597.28;5111129;28;20035;-72
2021/10/29 02:02:22;;;;;;;17.77;11.82;;;;;;;4.75;67.68;95604.03;5111449;28;20393;-73
2021/10/29 02:04:47;;;;;;;20.33;11.30;;;;;;;4.77;67.39;95599.66;5092751;28;20485;-73
2021/10/29 02:07:12;;;;;;;19.25;11.48;;;;;;;4.73;67.78;95600.69;5076055;28;20036;-73
2021/10/29 02:09:38;;;;;;;22.08;12.70;;;;;;;4.73;67.96;95598.09;5092858;28;20559;-73
2021/10/29 02:12:04;;;;;;;22.02;13.10;;;;;;;4.75;68.06;95600.63;5109604;28;20024;-73
2021/10/29 02:14:29;;;;;;;20.50;12.07;;;;;;;4.65;67.56;95595.06;5110988;28;20028;-73
2021/10/29 02:16:55;;;;;;;21.10;12.30;;;;;;;4.66;67.54;95596.75;5075872;28;20413;-73
2021/10/29 02:19:20;;;;;;;21.83;12.65;;;;;;;4.59;67.68;95591.03;5109711;28;20024;-73
2021/10/29 02:21:45;;;;;;;22.33;12.65;;;;;;;4.50;67.53;95577.78;5109721;28;20032;-73
2021/10/29 02:24:11;;;;;;;21.70;12.82;;;;;;;4.44;67.44;95576.31;5092738;28;20028;-73
2021/10/29 02:26:36;;;;;;;22.75;13.60;;;;;;;4.42;68.26;95589.25;5110772;28;20046;-73
2021/10/29 02:29:03;;;;;;;24.73;13.68;;;;;;;4.40;67.86;95580.78;5109619;28;20033;-73
2021/10/29 02:31:29;;;;;;;22.33;14.02;;;;;;;4.29;68.62;95580.44;5075743;28;20032;-73
2021/10/29 02:33:55;;;;;;;21.60;13.38;;;;;;;4.18;68.88;95585.22;5092493;28;20058;-72
2021/10/29 02:36:21;;;;;;;23.63;13.90;;;;;;;4.23;69.05;95583.28;5075927;28;20032;-73
2021/10/29 02:38:46;;;;;;;23.23;13.00;;;;;;;4.19;69.22;95586.91;5109512;28;20073;-73
2021/10/29 02:41:12;;;;;;;21.95;14.10;;;;;;;4.09;69.60;95571.03;5109325;28;20481;-73
2021/10/29 02:43:38;;;;;;;22.05;12.75;;;;;;;4.11;68.97;95579.53;5092623;28;20028;-73
2021/10/29 02:46:03;;;;;;;22.98;13.70;;;;;;;4.09;69.20;95577.94;5109361;28;20437;-73
2021/10/29 02:48:29;;;;;;;24.25;14.00;;;;;;;3.99;69.41;95562.09;5092548;28;20035;-73
2021/10/29 02:50:54;;;;;;;27.58;14.90;;;;;;;3.95;70.09;95574.22;5109331;28;20088;-73
2021/10/29 02:53:20;;;;;;;26.85;13.52;;;;;;;3.93;70.17;95575.22;5075576;28;20067;-73
2021/10/29 02:55:45;;;;;;;22.67;13.30;;;;;;;3.95;70.18;95578.56;5095983;28;20043;-73
2021/10/29 02:58:10;;;;;;;28.63;14.75;;;;;;;3.81;70.55;95561.16;5114143;28;20020;-73
2021/10/29 03:00:36;;;;;;;22.10;13.15;;;;;;;3.96;69.91;95568.22;5112983;28;20032;-73
2021/10/29 03:03:01;;;;;;;24.73;13.30;;;;;;;4.07;70.13;95577.16;5114094;28;20024;-73
2021/10/29 03:05:27;;;;;;;25.95;14.20;;;;;;;4.04;70.51;95578.16;5095871;28;20040;-73
2021/10/29 03:07:52;;;;;;;23.88;14.52;;;;;;;4.08;70.17;95589.13;5112732;28;20169;-73
2021/10/29 03:10:18;;;;;;;24.63;14.07;;;;;;;4.08;70.45;95586.56;5112727;28;20030;-73
2021/10/29 03:12:43;;;;;;;23.80;14.00;;;;;;;4.13;70.20;95587.19;5095516;28;20509;-73
2021/10/29 03:15:09;;;;;;;27.30;14.73;;;;;;;4.16;70.41;95587.06;5078751;28;20020;-73
2021/10/29 03:17:35;;;;;;;26.33;14.00;;;;;;;4.19;70.26;95576.63;5078998;28;20511;-73
2021/10/29 03:20:01;;;;;;;24.08;14.32;;;;;;;4.25;69.89;95584.88;5078870;28;20625;-74
2021/10/29 03:22:27;;;;;;;25.10;15.27;;;;;;;4.32;69.84;95588.03;5112669;28;20100;-73
2021/10/29 03:24:52;;;;;;;28.02;15.35;;;;;;;4.33;69.96;95579.38;5113713;28;20451;-72
2021/10/29 03:27:19;;;;;;;25.52;13.57;;;;;;;4.34;70.33;95595.66;5112525;28;20473;-73
2021/10/29 03:29:45;;;;;;;25.83;14.38;;;;;;;4.31;70.41;95583.75;5112296;28;20020;-73
2021/10/29 03:32:10;;;;;;;24.05;13.02;;;;;;;4.28;70.18;95575.34;5095593;28;20077;-73
2021/10/29 03:34:36;;;;;;;22.48;13.48;;;;;;;4.28;70.17;95576.19;5112291;28;20082;-73
2021/10/29 03:37:04;;;;;;;27.02;14.20;;;;;;;4.42;70.15;95581.53;5112498;28;20104;-72
2021/10/29 03:39:33;;;;;;;20.83;12.88;;;;;;;4.39;69.75;95581.66;5112199;28;20096;-74
2021/10/29 03:42:01;;;;;;;21.30;13.43;;;;;;;4.38;69.35;95574.03;5095397;28;20493;-74
2021/10/29 03:46:57;;;;;;;23.73;13.55;;;;;;;4.38;70.13;95572.28;5095570;28;20035;-74
2021/10/29 03:49:33;;;;;;;22.40;14.02;;;;;;;4.41;69.94;95579.03;5113107;28;20079;-72
2021/10/29 03:52:13;;;;;;;25.88;13.93;;;;;;;4.22;69.61;95561.88;5112192;28;20024;-72
2021/10/29 03:54:39;;;;;;;25.05;14.57;;;;;;;4.38;69.24;95568.91;5113241;28;20035;-74
2021/10/29 03:59:30;;;;;;;23.27;13.77;;;;;;;4.40;69.41;95587.66;5113038;28;20081;-74
2021/10/29 04:01:56;;;;;;;24.88;13.05;;;;;;;4.39;69.51;95591.97;5111689;28;20039;-74
2021/10/29 04:04:21;;;;;;;24.15;13.60;;;;;;;4.37;70.33;95578.31;5094395;28;20076;-74
2021/10/29 04:06:47;;;;;;;22.75;13.43;;;;;;;4.41;69.77;95581.63;5094698;28;20031;-74
2021/10/29 04:09:13;;;;;;;23.42;13.98;;;;;;;4.38;69.78;95579.19;5077882;28;20079;-74
2021/10/29 04:11:39;;;;;;;23.20;12.75;;;;;;;4.35;69.93;95575.03;5111520;28;20043;-74
2021/10/29 04:14:06;;;;;;;20.80;12.40;;;;;;;4.35;69.69;95581.91;5112739;28;20024;-74
2021/10/29 04:16:36;;;;;;;26.50;14.10;;;;;;;4.30;69.59;95582.09;5111542;28;20031;-74
2021/10/29 04:19:02;;;;;;;25.75;13.98;;;;;;;4.25;69.83;95582.31;5095121;28;20032;-74
2021/10/29 04:21:28;;;;;;;22.98;13.98;;;;;;;4.25;69.68;95577.16;5094352;28;20131;-74
2021/10/29 04:23:53;;;;;;;23.15;13.10;;;;;;;4.25;70.34;95576.34;5094208;28;20035;-74
2021/10/29 04:26:19;;;;;;;24.52;13.30;;;;;;;4.20;69.93;95562.84;5094043;28;20027;-74
2021/10/29 04:28:56;;;;;;;22.92;13.52;;;;;;;4.23;69.69;95566.13;5111223;28;20502;-74
2021/10/29 04:31:30;;;;;;;21.13;13.18;;;;;;;4.24;69.80;95564.38;5112738;28;20032;-72
2021/10/29 04:33:56;;;;;;;24.58;14.13;;;;;;;4.20;70.14;95558.53;5094696;28;20047;-72
2021/10/29 04:36:21;;;;;;;21.92;12.75;;;;;;;4.12;69.89;95567.50;5077197;28;20570;-73
2021/10/29 04:38:47;;;;;;;35.75;18.80;;;;;;;3.88;70.35;95548.91;5093992;28;20623;-73
2021/10/29 04:41:15;;;;;;;34.25;17.33;;;;;;;3.94;70.37;95558.91;5093879;28;20031;-73
2021/10/29 04:43:41;;;;;;;26.85;13.85;;;;;;;3.93;70.54;95559.81;5110836;28;20043;-73
2021/10/29 04:46:07;;;;;;;28.65;15.48;;;;;;;3.72;70.74;95535.88;5076672;28;20534;-73
2021/10/29 04:48:32;;;;;;;27.65;16.15;;;;;;;3.90;71.37;95550.50;5112073;28;20072;-73
2021/10/29 04:50:58;;;;;;;25.95;14.68;;;;;;;4.03;71.13;95559.31;5093781;28;20043;-73
2021/10/29 04:53:24;;;;;;;21.67;12.32;;;;;;;3.89;70.06;95548.81;5110777;28;20068;-73
2021/10/29 04:55:50;;;;;;;21.95;12.80;;;;;;;3.75;70.05;95546.03;5093853;28;20390;-73
2021/10/29 04:58:16;;;;;;;27.58;15.30;;;;;;;3.77;70.36;95557.09;5111065;28;20053;-73
2021/10/29 05:00:41;;;;;;;32.75;18.67;;;;;;;3.76;70.45;95568.25;5093743;28;20042;-73
2021/10/29 05:03:06;;;;;;;27.70;14.60;;;;;;;3.70;70.68;95560.81;5110577;28;20027;-73
2021/10/29 05:05:34;;;;;;;30.58;17.05;;;;;;;3.73;71.21;95568.38;5093628;28;20409;-73
2021/10/29 05:08:00;;;;;;;25.98;14.70;;;;;;;3.72;71.58;95564.16;5110434;28;20028;-73
2021/10/29 05:10:26;;;;;;;18.77;12.68;;;;;;;3.69;70.93;95552.28;5093348;28;20068;-73
2021/10/29 05:12:51;;;;;;;24.10;14.30;;;;;;;3.70;71.01;95555.66;5093398;28;20038;-73
2021/10/29 05:15:17;;;;;;;24.15;13.73;;;;;;;3.78;71.15;95572.41;5110448;28;20036;-74
2021/10/29 05:17:44;;;;;;;24.00;15.30;;;;;;;3.74;70.63;95581.19;5092875;28;20032;-73
2021/10/29 05:20:10;;;;;;;34.95;19.70;;;;;;;3.66;71.54;95579.84;5110340;28;20023;-73
2021/10/29 05:22:35;;;;;;;36.92;22.00;;;;;;;3.61;71.35;95585.19;5112000;28;20031;-73
2021/10/29 05:25:01;;;;;;;41.47;20.40;;;;;;;3.62;71.48;95591.13;5110295;28;20058;-73
2021/10/29 05:27:26;;;;;;;34.78;19.27;;;;;;;3.63;71.46;95585.94;5093424;28;20027;-73
2021/10/29 05:29:51;;;;;;;22.98;12.90;;;;;;;3.62;71.28;95589.41;5110040;28;20080;-73
2021/10/29 05:32:17;;;;;;;24.75;13.05;;;;;;;3.62;71.40;95584.25;5093148;28;20035;-73
2021/10/29 05:34:42;;;;;;;20.85;13.55;;;;;;;3.63;71.57;95590.25;5093116;28;20062;-73
2021/10/29 05:37:08;;;;;;;18.95;11.00;;;;;;;3.57;71.69;95579.34;5088703;28;20040;-73
2021/10/29 05:39:33;;;;;;;19.33;11.52;;;;;;;3.65;71.00;95594.44;5106136;28;20490;-73
2021/10/29 05:41:59;;;;;;;25.25;14.73;;;;;;;3.61;71.51;95589.47;5109948;28;20028;-73
2021/10/29 05:44:24;;;;;;;28.63;15.15;;;;;;;3.63;71.72;95596.22;5092033;28;20031;-73
2021/10/29 05:46:50;;;;;;;25.88;15.85;;;;;;;3.66;71.56;95595.25;5092895;28;20032;-73
2021/10/29 05:49:16;;;;;;;26.23;14.90;;;;;;;3.71;72.02;95601.03;5076251;28;20037;-73
2021/10/29 05:51:45;;;;;;;27.85;15.23;;;;;;;3.70;72.17;95605.31;5093056;28;20122;-73
2021/10/29 05:56:57;;;;;;;27.73;15.75;;;;;;;3.82;72.31;95609.13;5085104;28;20069;-73
2021/10/29 05:59:23;;;;;;;32.63;15.23;;;;;;;3.83;71.98;95605.63;5093096;28;20347;-73
2021/10/29 06:01:49;;;;;;;26.88;15.45;;;;;;;3.94;72.10;95607.75;5109850;28;20047;-73
2021/10/29 06:04:14;;;;;;;26.67;14.90;;;;;;;4.00;71.84;95600.56;5110132;28;20401;-73
2021/10/29 06:06:40;;;;;;;28.38;14.75;;;;;;;4.03;72.04;95609.91;5110018;28;20036;-73
2021/10/29 06:09:06;;;;;;;25.02;13.65;;;;;;;4.07;71.51;95606.31;5109901;28;20081;-73
2021/10/29 06:11:31;;;;;;;22.85;13.43;;;;;;;4.07;71.51;95615.72;5111146;28;20035;-73
2021/10/29 06:13:57;;;;;;;31.02;16.10;;;;;;;3.96;71.28;95614.50;5092647;28;20030;-73
2021/10/29 06:16:23;;;;;;;33.25;20.77;;;;;;;3.93;71.57;95601.78;5092953;28;20032;-73
2021/10/29 06:18:49;;;;;;;42.90;28.77;;;;;;;3.98;71.64;95616.97;5109714;28;20027;-73
2021/10/29 06:21:17;;;;;;;53.38;30.85;;;;;;;3.97;71.28;95618.72;5092781;28;20027;-73
2021/10/29 06:24:00;;;;;;;42.42;26.27;;;;;;;3.99;71.87;95621.22;5093230;28;20026;-73
2021/10/29 06:26:27;;;;;;;38.70;22.70;;;;;;;3.94;71.77;95612.88;5095311;28;20027;-73
2021/10/29 06:28:53;;;;;;;34.10;19.17;;;;;;;4.02;71.47;95624.50;5112197;28;20583;-73
2021/10/29 06:31:18;;;;;;;33.55;20.88;;;;;;;3.91;71.40;95619.00;5096430;28;20031;-73
2021/10/29 06:33:45;;;;;;;28.33;17.27;;;;;;;4.23;71.53;95621.84;5096273;28;20129;-73
2021/10/29 06:36:11;;;;;;;40.80;23.17;;;;;;;5.11;80.27;95618.63;5096617;28;20066;-73
2021/10/29 06:38:40;;;;;;;66.22;34.00;;;;;;;6.19;83.98;95632.94;5096413;28;20111;-73
2021/10/29 06:41:06;;;;;;;74.80;38.47;;;;;;;7.21;84.80;95630.81;5114586;28;20545;-73
2021/10/29 06:43:40;;;;;;;59.15;34.70;;;;;;;8.14;83.48;95615.97;5096235;28;20062;-73
2021/10/29 06:46:29;;;;;;;44.13;25.55;;;;;;;9.46;83.52;95628.41;5097302;28;20107;-73
2021/10/29 06:49:18;;;;;;;32.92;21.55;;;;;;;10.12;77.28;95604.06;5085830;28;20528;-73
2021/10/29 07:40:58;;;;;;;18.13;13.07;;;;;;;10.35;53.34;95602.50;5118560;27;20038;-73
2021/10/29 07:43:49;;;;;;;22.45;13.30;;;;;;;10.52;53.42;95609.94;5092116;27;20036;-74
2021/10/29 07:46:10;;;;;;;21.38;14.00;;;;;;;10.42;53.73;95616.75;5124272;27;20104;-74
2021/10/29 07:48:35;;;;;;;20.83;13.30;;;;;;;10.42;53.30;95611.56;5115547;27;20059;-73
2021/10/29 07:51:01;;;;;;;23.27;13.23;;;;;;;10.49;53.08;95614.53;5133747;27;20583;-73
2021/10/29 07:53:28;;;;;;;21.27;13.93;;;;;;;10.57;53.00;95614.84;5112187;27;20081;-73
2021/10/29 07:55:55;;;;;;;22.10;13.85;;;;;;;10.53;53.32;95603.00;5126939;27;20088;-73
2021/10/29 07:58:20;;;;;;;22.30;12.38;;;;;;;10.49;53.48;95593.75;5124168;27;20028;-73
2021/10/29 08:00:46;;;;;;;19.73;13.25;;;;;;;10.60;53.00;95609.44;5103982;28;20467;-73
2021/10/29 08:03:12;;;;;;;19.83;13.02;;;;;;;10.71;52.98;95606.06;5132467;27;20077;-74
2021/10/29 08:05:37;;;;;;;22.05;14.38;;;;;;;10.78;53.19;95603.84;5129023;27;20096;-74
2021/10/29 08:08:04;;;;;;;21.23;12.82;;;;;;;10.85;53.19;95605.09;5130780;27;20084;-74
2021/10/29 08:10:30;;;;;;;21.45;13.68;;;;;;;10.92;53.25;95601.09;5130950;27;20058;-73
2021/10/29 08:12:56;;;;;;;19.63;13.02;;;;;;;11.06;52.79;95602.72;5115114;27;20037;-74
2021/10/29 08:15:21;;;;;;;22.13;13.38;;;;;;;11.12;52.82;95594.50;5115191;27;20027;-74
2021/10/29 08:17:47;;;;;;;21.92;13.05;;;;;;;11.05;52.41;95565.47;5132101;27;20484;-74
2021/10/29 08:20:13;;;;;;;22.13;13.95;;;;;;;11.24;52.80;95584.97;5115069;27;20516;-74
2021/10/29 08:22:39;;;;;;;25.77;14.32;;;;;;;11.27;52.53;95584.72;5098250;27;20092;-74
2021/10/29 08:25:05;;;;;;;22.00;13.80;;;;;;;11.24;52.37;95571.94;5131944;27;20023;-74
2021/10/29 08:27:31;;;;;;;20.60;13.77;;;;;;;11.39;52.02;95594.22;5098106;27;20249;-74
2021/10/29 08:29:56;;;;;;;18.17;13.05;;;;;;;11.47;52.02;95584.06;5114690;27;20477;-74
2021/10/29 08:32:22;;;;;;;20.60;12.68;;;;;;;11.52;51.49;95584.56;5133186;27;20031;-74
2021/10/29 08:34:48;;;;;;;17.77;12.52;;;;;;;11.65;52.19;95586.28;5131659;27;20051;-74
2021/10/29 08:37:15;;;;;;;21.05;11.70;;;;;;;11.72;51.76;95583.06;5133392;27;20023;-74
2021/10/29 08:39:40;;;;;;;18.80;12.57;;;;;;;11.84;51.30;95582.16;5133075;27;20068;-74
2021/10/29 08:42:06;;;;;;;20.05;12.25;;;;;;;11.89;51.46;95581.84;5114644;27;20411;-74
2021/10/29 08:44:32;;;;;;;17.10;12.10;;;;;;;11.93;50.89;95583.28;5088686;28;20115;-73
2021/10/29 08:47:02;;;;;;;18.10;12.45;;;;;;;11.87;50.21;95573.34;5130750;27;20032;-72
2021/10/29 08:49:31;;;;;;;20.63;12.65;;;;;;;12.04;50.57;95574.66;5113619;27;20510;-73
2021/10/29 08:51:57;;;;;;;19.40;12.15;;;;;;;12.03;50.53;95555.56;5122563;27;20060;-76
2021/10/29 08:54:23;;;;;;;17.52;11.85;;;;;;;12.25;49.81;95572.16;5110689;27;20019;-73
2021/10/29 08:56:49;;;;;;;16.25;11.35;;;;;;;12.34;49.13;95565.41;5121095;27;20110;-73
2021/10/29 09:02:06;;;;;;;19.33;11.25;;;;;;;12.58;48.90;95567.88;5115631;27;20554;-73
2021/10/29 09:04:41;;;;;;;16.13;11.52;;;;;;;12.58;49.06;95567.88;5132575;27;20027;-74
2021/10/29 09:31:31;;;;;;;17.20;10.55;;;;;;;13.47;44.92;95532.03;5112510;27;21678;-74
2021/10/29 09:33:57;;;;;;;12.93;9.75;;;;;;;13.45;44.48;95537.34;5115932;27;20047;-76
2021/10/29 09:36:27;;;;;;;14.93;9.82;;;;;;;13.54;44.58;95533.16;5117675;27;20073;-73
2021/10/29 09:39:08;;;;;;;13.90;9.40;;;;;;;13.64;44.79;95536.66;5097718;27;20417;-74
2021/10/29 09:41:35;;;;;;;15.20;9.98;;;;;;;13.78;44.04;95530.28;5114359;27;20031;-75
2021/10/29 09:44:04;;;;;;;16.10;9.20;;;;;;;13.85;44.37;95534.88;5102800;28;20080;-73
2021/10/29 09:46:55;;;;;;;15.85;10.20;;;;;;;13.99;42.44;95535.50;5091354;28;20406;-72
2021/10/29 09:49:31;;;;;;;17.85;11.25;;;;;;;14.02;41.68;95524.78;5137071;27;20524;-73
2021/10/29 09:52:32;;;;;;;14.40;10.10;;;;;;;14.00;42.74;95522.28;5134181;27;20035;-72
2021/10/29 09:54:52;;;;;;;14.63;9.50;;;;;;;14.08;42.51;95513.78;5138137;27;20055;-73
2021/10/29 09:57:22;;;;;;;13.15;9.30;;;;;;;14.14;40.80;95513.25;5114308;28;20031;-73
2021/10/29 09:59:50;;;;;;;12.90;9.37;;;;;;;14.21;40.82;95508.34;5095089;28;20023;-74
2021/10/29 10:02:18;;;;;;;12.27;8.82;;;;;;;14.23;40.30;95515.06;5130770;27;20027;-72
2021/10/29 10:04:45;;;;;;;11.57;8.45;;;;;;;14.28;39.61;95499.00;5113683;28;20124;-74
2021/10/29 10:07:10;;;;;;;13.93;9.25;;;;;;;14.25;40.51;95494.06;5114134;28;20056;-74
2021/10/29 10:09:36;;;;;;;12.40;8.40;;;;;;;14.20;40.67;95489.22;5121357;27;20092;-73
2021/10/29 10:12:02;;;;;;;13.40;8.80;;;;;;;14.30;39.90;95487.47;5117542;27;20038;-74
2021/10/29 10:14:27;;;;;;;12.23;8.40;;;;;;;14.43;39.09;95497.69;5134206;27;20031;-74
2021/10/29 10:16:53;;;;;;;11.50;7.85;;;;;;;14.51;39.15;95502.22;5116970;27;20084;-74
2021/10/29 10:19:19;;;;;;;10.25;6.95;;;;;;;14.45;38.33;95479.25;5137276;27;20055;-74
2021/10/29 10:21:50;;;;;;;11.02;7.55;;;;;;;14.56;38.76;95486.19;5117501;27;20140;-75
2021/10/29 10:24:17;;;;;;;;;;;;;;;14.57;37.38;95482.59;5135885;27;20472;-75
2021/10/29 10:27:14;;;;;;;13.15;7.90;;;;;;;14.45;37.06;95481.84;5134266;27;19919;-73
2021/10/29 10:29:58;;;;;;;13.25;7.68;;;;;;;14.53;37.94;95479.44;5121894;27;20171;-74
2021/10/29 10:46:19;;;;;;;10.68;7.40;;;;;;;15.08;35.96;95465.84;5118695;27;20043;-79
2021/10/29 10:54:22;;;;;;;11.10;6.22;;;;;;;15.19;33.42;95458.66;5130013;27;20069;-78
2021/10/29 10:57:01;;;;;;;10.73;6.25;;;;;;;15.19;34.88;95452.59;5113229;27;20455;-79
2021/10/29 10:59:58;;;;;;;9.93;6.10;;;;;;;15.17;35.07;95439.66;5097863;28;20027;-78
2021/10/29 11:10:22;;;;;;;8.80;5.45;;;;;;;15.38;34.05;95431.63;5097144;28;20030;-78
2021/10/29 11:12:48;;;;;;;9.75;5.90;;;;;;;15.43;33.51;95433.81;5096868;28;20031;-78
2021/10/29 11:15:21;;;;;;;24.00;10.65;;;;;;;15.44;32.20;95437.28;5112145;28;20035;-78
2021/10/29 11:17:59;;;;;;;14.32;6.88;;;;;;;15.54;31.33;95440.69;5096048;28;20036;-78
2021/10/29 11:20:51;;;;;;;11.00;4.82;;;;;;;15.62;31.02;95436.38;5096496;28;20070;-78
2021/10/29 11:23:16;;;;;;;7.95;4.53;;;;;;;15.59;32.19;95428.81;5114142;28;20035;-78
2021/10/29 11:26:07;;;;;;;6.03;3.95;;;;;;;15.61;30.39;95424.25;5112933;28;20405;-78
2021/10/29 11:28:39;;;;;;;6.70;3.70;;;;;;;15.63;28.50;95424.13;5097757;28;20023;-78
2021/10/29 11:31:07;;;;;;;7.53;4.00;;;;;;;15.62;28.65;95414.59;5114183;28;20094;-78
2021/10/29 11:33:33;;;;;;;5.68;3.55;;;;;;;15.66;29.72;95415.97;5096004;28;20032;-78
2021/10/29 11:36:04;;;;;;;7.82;4.20;;;;;;;15.62;29.44;95402.34;5095881;28;20067;-78
2021/10/29 11:38:31;;;;;;;8.45;4.22;;;;;;;15.67;27.34;95408.94;5078563;28;20031;-78
2021/10/29 11:40:57;;;;;;;9.18;3.50;;;;;;;15.64;28.37;95397.78;5084531;28;20111;-80
2021/10/29 11:43:24;;;;;;;6.55;3.78;;;;;;;15.59;29.06;95386.91;5095697;28;20035;-79
2021/10/29 11:45:50;;;;;;;8.73;4.60;;;;;;;15.72;29.33;95402.34;5094472;28;20402;-79
2021/10/29 11:48:16;;;;;;;6.40;3.72;;;;;;;15.78;29.78;95398.31;5112439;28;20027;-79
2021/10/29 11:50:42;;;;;;;6.28;3.83;;;;;;;15.80;29.25;95399.00;5112623;28;20112;-79
2021/10/29 11:53:10;;;;;;;7.47;4.35;;;;;;;15.76;29.16;95376.69;5112589;28;20545;-79
2021/10/29 11:55:40;;;;;;;6.47;3.88;;;;;;;15.90;29.23;95393.72;5112520;28;20054;-79
2021/10/29 11:58:33;;;;;;;5.35;3.58;;;;;;;15.91;28.73;95395.34;5112246;28;20024;-79
2021/10/29 12:09:03;;;;;;;6.93;4.20;;;;;;;15.99;29.38;95393.66;5095345;28;20111;-79
2021/10/29 12:11:29;;;;;;;6.43;3.53;;;;;;;16.01;29.29;95383.84;5095153;28;20062;-79
2021/10/29 12:13:55;;;;;;;6.43;3.38;;;;;;;16.05;28.74;95385.22;5112242;28;20024;-79
2021/10/29 12:16:24;;;;;;;5.63;3.50;;;;;;;16.08;26.65;95377.06;5095045;28;20039;-78
2021/10/29 12:18:55;;;;;;;5.18;4.10;;;;;;;16.02;28.71;95382.91;5095259;28;20020;-78
2021/10/29 12:21:21;;;;;;;7.78;4.30;;;;;;;15.91;29.55;95383.09;5112050;28;20035;-79
2021/10/29 12:23:49;;;;;;;6.88;4.32;;;;;;;15.96;29.43;95382.63;5095082;28;20059;-78
2021/10/29 12:26:28;;;;;;;6.32;3.42;;;;;;;15.79;27.61;95352.81;5077974;28;20065;-79
2021/10/29 12:28:56;;;;;;;5.53;3.03;;;;;;;15.82;27.14;95353.38;5096432;28;20028;-79
2021/10/29 12:37:03;;;;;;;6.25;3.28;;;;;;;15.84;27.40;95374.16;5113260;28;20043;-79
2021/10/29 12:58:54;;;;;;;8.40;3.63;;;;;;;15.62;26.07;95377.94;5099047;28;20088;-79
2021/10/29 13:01:38;;;;;;;5.35;2.97;;;;;;;15.59;25.94;95384.28;5096255;28;20493;-78
2021/10/29 13:04:11;;;;;;;5.32;3.13;;;;;;;15.53;24.79;95384.06;5097215;28;20035;-79
2021/10/29 13:06:48;;;;;;;5.15;3.00;;;;;;;15.43;25.43;95378.84;5095189;28;20027;-78
2021/10/29 13:09:19;;;;;;;5.55;3.35;;;;;;;15.40;25.59;95373.88;5094482;28;20092;-78
2021/10/29 13:11:45;;;;;;;6.00;3.20;;;;;;;15.34;25.53;95369.22;5093795;28;20066;-79
2021/10/29 13:14:14;;;;;;;4.20;2.85;;;;;;;15.28;25.97;95369.81;5111024;28;20070;-78
2021/10/29 13:16:39;;;;;;;4.78;3.28;;;;;;;15.27;27.14;95376.03;5111070;28;20028;-79
2021/10/29 13:38:16;;;;;;;6.75;2.95;;;;;;;14.94;27.87;95370.28;5110571;28;20088;-79
2021/10/29 14:34:07;;;;;;;6.97;3.85;;;;;;;13.59;29.85;95383.03;5110113;28;20055;-80
2021/10/29 14:36:44;;;;;;;7.10;4.00;;;;;;;13.41;30.30;95369.78;5111351;28;20032;-79
2021/10/29 14:39:19;;;;;;;5.70;3.67;;;;;;;13.39;28.64;95381.28;5110344;28;20493;-80
2021/10/29 14:42:05;;;;;;;7.57;4.60;;;;;;;13.28;30.41;95384.00;5110381;28;20081;-79
2021/10/29 14:44:49;;;;;;;7.22;3.45;;;;;;;13.09;29.50;95364.66;5110551;28;20110;-80
2021/10/29 15:06:02;;;;;;;9.48;5.32;;;;;;;12.36;29.79;95368.94;5113217;28;20115;-80
2021/10/29 15:30:02;;;;;;;8.60;4.70;;;;;;;11.77;31.96;95374.50;5113315;28;20043;-79
2021/10/29 15:46:04;;;;;;;8.70;4.75;;;;;;;11.40;32.25;95377.38;5098575;28;20034;-79
2021/10/29 15:48:39;;;;;;;11.10;5.15;;;;;;;11.40;32.37;95393.00;5081086;28;20032;-79
2021/10/29 15:51:04;;;;;;;11.18;5.38;;;;;;;11.40;32.50;95399.00;5112625;28;20538;-79
2021/10/29 15:53:30;;;;;;;13.32;6.45;;;;;;;11.25;33.05;95387.16;5078905;28;20065;-79
2021/10/29 15:55:59;;;;;;;11.27;6.78;;;;;;;11.03;33.21;95358.53;5095221;28;20030;-79
2021/10/29 15:58:34;;;;;;;12.57;5.68;;;;;;;11.15;33.16;95399.25;5096186;28;20073;-79
2021/10/29 16:01:08;;;;;;;15.20;6.53;;;;;;;11.15;33.03;95397.47;5112017;28;20016;-79